Time;durP1;ratioP1;P1;durP2;ratioP2;P2;SDS_P1;SDS_P2;PMS_P1;PMS_P2;Temp;Humidity;BMP_temperature;BMP_pressure;BME280_temperature;BME280_humidity;BME280_pressure;Samples;Min_cycle;Max_cycle;Signal;HPM_P1;HPM_P2
2023/01/29 00:02:08;;;;;;;5.60;4.65;;;20.20;54.90;;;;;;4994786;28;89355;-84
2023/01/29 00:04:34;;;;;;;6.60;5.05;;;20.20;54.90;;;;;;4973021;28;90190;-83
2023/01/29 00:06:59;;;;;;;6.32;4.95;;;20.10;54.70;;;;;;4973285;28;87365;-83
2023/01/29 00:09:26;;;;;;;5.97;4.85;;;20.10;54.80;;;;;;4975313;28;87096;-83
2023/01/29 00:11:52;;;;;;;6.03;4.75;;;20.10;54.80;;;;;;4974652;28;88393;-84
2023/01/29 00:14:18;;;;;;;5.97;4.78;;;20.10;54.80;;;;;;4975735;28;87917;-83
2023/01/29 00:16:44;;;;;;;6.10;4.78;;;20.10;54.70;;;;;;4975654;28;87036;-83
2023/01/29 00:19:09;;;;;;;5.53;4.70;;;20.00;54.80;;;;;;4975276;28;86489;-84
2023/01/29 00:21:35;;;;;;;6.47;5.30;;;20.00;54.80;;;;;;4975453;28;88488;-83
2023/01/29 00:24:01;;;;;;;6.10;5.10;;;20.00;54.70;;;;;;4975142;28;87922;-83
2023/01/29 00:26:29;;;;;;;6.40;5.10;;;20.00;54.60;;;;;;4974799;28;88254;-83
2023/01/29 00:29:00;;;;;;;6.77;5.43;;;20.00;54.70;;;;;;4975121;28;91126;-83
2023/01/29 00:31:26;;;;;;;4.88;4.40;;;19.90;54.80;;;;;;4974625;28;88516;-83
2023/01/29 00:33:52;;;;;;;5.18;4.68;;;19.90;54.80;;;;;;4974367;28;87575;-83
2023/01/29 00:36:20;;;;;;;6.03;4.97;;;19.90;54.80;;;;;;4975217;28;88488;-84
2023/01/29 00:38:53;;;;;;;5.68;4.93;;;19.90;54.70;;;;;;4964636;28;87645;-83
2023/01/29 00:46:49;;;;;;;7.07;5.22;;;19.80;54.90;;;;;;4976406;28;87493;-83
2023/01/29 00:49:16;;;;;;;6.85;5.05;;;19.80;54.90;;;;;;4973093;28;90637;-84
2023/01/29 00:51:41;;;;;;;5.50;4.60;;;19.80;54.80;;;;;;4972570;28;89568;-83
2023/01/29 00:54:07;;;;;;;6.25;5.03;;;19.80;54.80;;;;;;4974322;28;89208;-83
2023/01/29 00:56:36;;;;;;;6.88;5.15;;;19.70;54.80;;;;;;4975185;28;87331;-83
2023/01/29 00:59:03;;;;;;;6.38;4.60;;;19.70;54.60;;;;;;4974931;28;87338;-83
2023/01/29 01:04:13;;;;;;;6.47;4.75;;;19.70;54.80;;;;;;4973536;28;87621;-84
2023/01/29 01:06:40;;;;;;;6.07;4.78;;;19.60;55.20;;;;;;4977099;28;86883;-83
2023/01/29 01:11:52;;;;;;;5.85;4.88;;;19.60;54.60;;;;;;4977293;28;87719;-83
2023/01/29 01:14:19;;;;;;;6.53;5.10;;;19.60;54.60;;;;;;4978071;28;88871;-83
2023/01/29 01:16:45;;;;;;;5.88;4.78;;;19.60;54.60;;;;;;4977437;28;88829;-83
2023/01/29 01:19:14;;;;;;;6.43;4.57;;;19.60;54.70;;;;;;4977049;28;87597;-83
2023/01/29 01:21:44;;;;;;;4.72;4.18;;;19.60;54.60;;;;;;4977530;28;88066;-83
2023/01/29 01:24:10;;;;;;;5.15;4.60;;;19.50;54.60;;;;;;4976129;28;87691;-83
2023/01/29 01:26:36;;;;;;;5.15;4.40;;;19.50;54.60;;;;;;4976814;28;86927;-84
2023/01/29 01:29:01;;;;;;;5.10;4.43;;;19.50;54.70;;;;;;4977481;28;87917;-83
2023/01/29 01:31:27;;;;;;;5.78;5.13;;;19.50;54.70;;;;;;4977342;28;87614;-84
2023/01/29 01:33:54;;;;;;;6.72;4.70;;;19.50;54.60;;;;;;4977648;28;87211;-84
2023/01/29 01:36:20;;;;;;;5.32;4.82;;;19.40;54.50;;;;;;4977214;28;87271;-83
2023/01/29 01:38:46;;;;;;;4.80;4.30;;;19.40;54.60;;;;;;4977650;28;87474;-83
2023/01/29 01:41:13;;;;;;;5.82;4.70;;;19.40;54.60;;;;;;4977974;28;89736;-84
2023/01/29 01:44:00;;;;;;;5.70;4.25;;;19.40;54.60;;;;;;4976460;28;89133;-84
2023/01/29 01:46:32;;;;;;;5.32;4.55;;;19.40;54.60;;;;;;4976994;28;87760;-83
2023/01/29 01:49:07;;;;;;;5.07;4.55;;;19.40;54.50;;;;;;4977137;28;88032;-83
2023/01/29 01:51:39;;;;;;;4.90;4.35;;;19.40;54.60;;;;;;4976523;28;88410;-83
2023/01/29 01:54:11;;;;;;;4.82;4.32;;;19.30;54.50;;;;;;4976540;28;88415;-83
2023/01/29 01:56:47;;;;;;;5.78;4.80;;;19.30;54.70;;;;;;4977448;28;87666;-83
2023/01/29 01:59:17;;;;;;;5.65;4.63;;;19.30;54.60;;;;;;4977334;28;86560;-83
2023/01/29 02:01:48;;;;;;;4.82;4.32;;;19.30;54.60;;;;;;4991494;28;89959;-83
2023/01/29 02:10:12;;;;;;;5.82;4.65;;;19.20;54.50;;;;;;4976289;28;87730;-83
2023/01/29 02:12:39;;;;;;;5.05;4.50;;;19.20;54.40;;;;;;4976573;28;88476;-83
2023/01/29 02:15:05;;;;;;;5.28;4.28;;;19.20;54.50;;;;;;4976468;28;87372;-83
2023/01/29 02:17:31;;;;;;;5.25;4.40;;;19.20;54.30;;;;;;4976842;28;86854;-83
2023/01/29 02:20:00;;;;;;;5.50;4.97;;;19.20;54.50;;;;;;4977454;28;87971;-83
2023/01/29 02:22:54;;;;;;;6.13;4.93;;;19.20;54.50;;;;;;4976217;28;88256;-83
2023/01/29 02:25:38;;;;;;;9.25;4.60;;;19.10;54.40;;;;;;4976832;28;88325;-84
2023/01/29 02:28:20;;;;;;;5.07;4.55;;;19.10;54.50;;;;;;4976717;28;87251;-83
2023/01/29 02:30:57;;;;;;;5.88;4.38;;;19.20;54.60;;;;;;4976510;28;87577;-83
2023/01/29 02:33:29;;;;;;;5.25;4.57;;;19.10;54.50;;;;;;4975579;28;88256;-83
2023/01/29 02:36:03;;;;;;;6.32;4.57;;;19.10;54.40;;;;;;4976149;28;89654;-83
2023/01/29 02:38:40;;;;;;;6.18;4.80;;;19.10;54.40;;;;;;4976934;28;87270;-84
2023/01/29 02:41:24;;;;;;;4.30;3.90;;;19.10;54.40;;;;;;4976997;28;87334;-84
2023/01/29 02:44:12;;;;;;;4.63;4.13;;;19.10;54.30;;;;;;4976871;28;88480;-83
2023/01/29 02:46:52;;;;;;;5.28;4.78;;;19.00;54.10;;;;;;4974931;28;88622;-83
2023/01/29 02:49:23;;;;;;;5.72;4.90;;;19.10;54.20;;;;;;4974152;28;87438;-83
2023/01/29 02:51:55;;;;;;;5.65;4.65;;;19.00;54.20;;;;;;4976562;28;86823;-83
2023/01/29 02:54:27;;;;;;;6.18;5.20;;;19.00;54.30;;;;;;4975295;28;88486;-83
2023/01/29 02:57:09;;;;;;;4.43;4.03;;;19.00;54.30;;;;;;4976702;28;87589;-83
2023/01/29 02:59:44;;;;;;;5.75;4.20;;;19.00;54.30;;;;;;4975045;28;87935;-83
2023/01/29 03:02:17;;;;;;;4.88;4.40;;;19.00;54.20;;;;;;4975002;28;90847;-83
2023/01/29 03:04:51;;;;;;;4.90;4.40;;;19.00;54.10;;;;;;4976017;28;89207;-83
2023/01/29 03:07:41;;;;;;;5.78;4.90;;;19.00;54.20;;;;;;4975064;28;87845;-83
2023/01/29 03:10:11;;;;;;;4.70;4.30;;;18.90;54.20;;;;;;4975630;28;87340;-82
2023/01/29 03:12:39;;;;;;;6.20;4.53;;;18.90;54.90;;;;;;4974530;28;87721;-83
2023/01/29 03:15:12;;;;;;;5.05;4.43;;;18.90;54.10;;;;;;4974503;28;88857;-83
2023/01/29 03:17:52;;;;;;;6.78;4.90;;;18.90;54.20;;;;;;4975081;28;88303;-83
2023/01/29 03:20:24;;;;;;;5.13;4.47;;;18.90;54.20;;;;;;4976953;28;87446;-83
2023/01/29 03:22:57;;;;;;;5.38;4.00;;;18.90;54.00;;;;;;4975947;28;87727;-83
2023/01/29 03:34:33;;;;;;;5.18;4.68;;;18.80;54.20;;;;;;4975101;28;87506;-83
2023/01/29 03:37:28;;;;;;;4.85;4.20;;;18.80;53.90;;;;;;4975590;28;89222;-83
2023/01/29 03:39:54;;;;;;;6.55;4.88;;;18.80;54.10;;;;;;4974736;28;87559;-83
2023/01/29 03:42:29;;;;;;;4.70;4.20;;;18.80;54.10;;;;;;4975022;28;86806;-83
2023/01/29 03:45:13;;;;;;;4.90;4.28;;;18.80;54.10;;;;;;4974648;28;87740;-83
2023/01/29 03:47:39;;;;;;;4.70;4.25;;;18.80;54.10;;;;;;4975188;28;88484;-83
2023/01/29 03:50:40;;;;;;;5.20;4.70;;;18.80;53.90;;;;;;4975469;28;88419;-83
2023/01/29 03:53:28;;;;;;;4.50;4.10;;;18.80;53.90;;;;;;4975735;28;88335;-83
2023/01/29 03:56:31;;;;;;;4.60;4.20;;;18.80;53.90;;;;;;4974833;28;91265;-84
2023/01/29 03:59:14;;;;;;;5.45;4.55;;;18.70;53.90;;;;;;4951322;28;92889;-83
2023/01/29 04:01:52;;;;;;;4.93;4.38;;;18.70;54.00;;;;;;4952558;28;88934;-84
2023/01/29 04:04:35;;;;;;;5.07;4.57;;;18.70;54.10;;;;;;4935652;28;87004;-83
2023/01/29 04:07:11;;;;;;;5.03;4.53;;;18.70;54.00;;;;;;4952714;28;88250;-83
2023/01/29 04:09:54;;;;;;;4.78;4.35;;;18.60;54.00;;;;;;4950916;28;89842;-83
2023/01/29 04:12:37;;;;;;;4.63;4.07;;;18.60;54.00;;;;;;4951805;28;88676;-83
2023/01/29 04:15:08;;;;;;;4.85;4.35;;;18.60;53.90;;;;;;4952090;28;87614;-83
2023/01/29 04:17:48;;;;;;;5.13;4.60;;;18.60;54.00;;;;;;4952426;28;87455;-83
2023/01/29 04:20:14;;;;;;;4.60;4.18;;;18.60;54.00;;;;;;4952652;28;88912;-83
2023/01/29 04:22:46;;;;;;;4.97;4.45;;;18.60;54.00;;;;;;4953582;28;88161;-83
2023/01/29 04:25:27;;;;;;;4.55;4.15;;;18.60;54.00;;;;;;4952015;28;87242;-82
2023/01/29 04:28:40;;;;;;;5.95;4.38;;;18.60;54.50;;;;;;4952641;28;87882;-83
2023/01/29 04:31:10;;;;;;;5.22;4.72;;;18.50;54.00;;;;;;4894298;28;89091;-83
2023/01/29 04:34:10;;;;;;;5.60;4.82;;;18.50;53.90;;;;;;4892509;28;87972;-82
2023/01/29 04:36:43;;;;;;;5.78;4.65;;;18.60;54.00;;;;;;4894541;28;87649;-83
2023/01/29 04:39:20;;;;;;;4.22;3.80;;;18.60;53.80;;;;;;4893594;28;87224;-83
2023/01/29 04:42:06;;;;;;;5.25;4.35;;;18.50;53.80;;;;;;4895772;28;87767;-83
2023/01/29 04:44:49;;;;;;;4.97;4.47;;;18.50;53.90;;;;;;4897323;28;88353;-83
2023/01/29 04:47:41;;;;;;;5.00;4.50;;;18.50;53.70;;;;;;4896852;28;88046;-82
2023/01/29 04:50:14;;;;;;;4.82;4.32;;;18.50;53.80;;;;;;4897576;28;90925;-83
2023/01/29 04:53:01;;;;;;;5.03;4.40;;;18.50;53.60;;;;;;4896858;28;87766;-83
2023/01/29 04:55:55;;;;;;;4.82;3.75;;;18.50;53.70;;;;;;4896831;28;91586;-83
2023/01/29 04:58:47;;;;;;;5.03;4.53;;;18.50;53.70;;;;;;4897016;28;87510;-83
2023/01/29 05:01:17;;;;;;;5.18;4.43;;;18.50;53.60;;;;;;4896853;28;93966;-84
2023/01/29 05:03:48;;;;;;;5.00;4.47;;;18.50;53.70;;;;;;4895949;28;88945;-83
2023/01/29 05:06:15;;;;;;;4.85;4.35;;;18.50;53.70;;;;;;4918379;28;87617;-83
2023/01/29 05:08:41;;;;;;;4.63;4.20;;;18.50;53.70;;;;;;4977333;28;87036;-83
2023/01/29 05:11:07;;;;;;;5.30;4.65;;;18.40;53.70;;;;;;4978067;28;87425;-83
2023/01/29 05:13:37;;;;;;;5.20;4.68;;;18.40;53.60;;;;;;4977432;28;88180;-83
2023/01/29 05:16:15;;;;;;;6.20;4.60;;;18.40;53.60;;;;;;4976998;28;92316;-83
2023/01/29 05:18:41;;;;;;;5.03;4.47;;;18.40;53.70;;;;;;4976414;28;87678;-83
2023/01/29 05:21:08;;;;;;;4.85;4.35;;;18.40;53.50;;;;;;4976419;28;87365;-83
2023/01/29 05:23:34;;;;;;;4.57;4.18;;;18.40;53.60;;;;;;4976952;28;88800;-83
2023/01/29 05:25:59;;;;;;;4.53;4.13;;;18.40;53.60;;;;;;4977886;28;88056;-83
2023/01/29 05:28:25;;;;;;;4.60;4.20;;;18.40;53.60;;;;;;4978529;28;87041;-83
2023/01/29 05:30:54;;;;;;;4.30;3.75;;;18.40;53.70;;;;;;4977737;28;87435;-84
2023/01/29 05:33:21;;;;;;;4.57;4.10;;;18.40;53.60;;;;;;4977431;28;87560;-83
2023/01/29 05:35:48;;;;;;;5.30;4.47;;;18.30;53.50;;;;;;4976105;28;87296;-83
2023/01/29 05:38:14;;;;;;;5.00;4.30;;;18.30;53.70;;;;;;4977364;28;87965;-82
2023/01/29 05:40:41;;;;;;;4.88;4.38;;;18.30;53.60;;;;;;4974960;28;86962;-83
2023/01/29 05:43:27;;;;;;;6.28;5.03;;;18.30;53.50;;;;;;4975815;28;88479;-83
2023/01/29 05:45:53;;;;;;;4.35;3.95;;;18.30;53.60;;;;;;4975828;28;88995;-83
2023/01/29 05:48:19;;;;;;;4.60;4.10;;;18.30;53.60;;;;;;4977420;28;86974;-83
2023/01/29 05:50:45;;;;;;;4.75;4.25;;;18.30;53.50;;;;;;4976907;28;87878;-83
2023/01/29 05:53:13;;;;;;;4.57;4.13;;;18.30;53.50;;;;;;4977096;28;88613;-83
2023/01/29 05:55:38;;;;;;;4.85;4.00;;;18.30;53.60;;;;;;4976851;28;88767;-83
2023/01/29 05:58:05;;;;;;;4.82;4.32;;;18.30;53.70;;;;;;4975645;28;87027;-83
2023/01/29 06:00:30;;;;;;;4.47;3.65;;;18.30;53.60;;;;;;4976613;28;87450;-83
2023/01/29 06:03:05;;;;;;;4.28;3.88;;;18.30;53.60;;;;;;4973360;28;92554;-83
2023/01/29 06:05:30;;;;;;;4.95;4.15;;;18.30;53.60;;;;;;4967726;28;88231;-82
2023/01/29 06:07:56;;;;;;;4.50;4.05;;;18.30;53.60;;;;;;4977947;28;87011;-83
2023/01/29 06:10:22;;;;;;;4.95;4.45;;;18.30;53.60;;;;;;4977733;28;87073;-84
2023/01/29 06:12:47;;;;;;;5.00;4.13;;;18.30;53.40;;;;;;4977008;28;89103;-84
2023/01/29 06:15:14;;;;;;;4.53;4.13;;;18.30;53.40;;;;;;4977719;28;89250;-82
2023/01/29 06:17:42;;;;;;;4.93;4.25;;;18.30;53.30;;;;;;4977192;28;87415;-83
2023/01/29 06:20:13;;;;;;;5.63;4.68;;;18.30;53.40;;;;;;4979469;28;87454;-83
2023/01/29 06:22:39;;;;;;;6.68;4.20;;;18.40;53.90;;;;;;4975334;28;91727;-84
2023/01/29 06:25:05;;;;;;;4.97;4.47;;;18.40;53.90;;;;;;4977887;28;88765;-83
2023/01/29 06:27:31;;;;;;;5.15;4.30;;;18.50;54.00;;;;;;4977630;28;88151;-82
2023/01/29 06:29:56;;;;;;;7.97;4.80;;;18.60;53.80;;;;;;4976722;28;89491;-83
2023/01/29 06:32:22;;;;;;;5.22;4.35;;;18.80;54.20;;;;;;4978124;28;88072;-84
2023/01/29 06:34:48;;;;;;;5.78;4.75;;;19.00;53.20;;;;;;4976983;28;87746;-83
2023/01/29 06:37:13;;;;;;;5.55;4.47;;;19.00;53.50;;;;;;4976615;28;87301;-82
2023/01/29 06:39:39;;;;;;;5.97;4.35;;;19.10;52.80;;;;;;4977614;28;86936;-85
2023/01/29 06:42:04;;;;;;;7.45;5.20;;;19.20;52.80;;;;;;4975534;28;88618;-83
2023/01/29 06:44:35;;;;;;;6.38;4.32;;;19.30;52.60;;;;;;4973908;28;87986;-83
2023/01/29 06:47:00;;;;;;;5.03;3.55;;;19.40;52.50;;;;;;4973427;28;86882;-83
2023/01/29 06:49:26;;;;;;;4.50;3.55;;;19.50;52.40;;;;;;4970730;28;87511;-83
2023/01/29 06:51:52;;;;;;;5.32;4.10;;;19.60;52.50;;;;;;4971417;28;88857;-82
2023/01/29 06:54:17;;;;;;;4.35;3.63;;;19.70;52.40;;;;;;4972523;28;88240;-82
2023/01/29 06:56:43;;;;;;;4.88;3.92;;;19.80;52.20;;;;;;4964088;28;87326;-82
2023/01/29 06:59:10;;;;;;;4.15;3.75;;;19.80;52.00;;;;;;4972274;28;87509;-82
2023/01/29 07:01:39;;;;;;;5.00;3.97;;;19.80;51.70;;;;;;4974157;28;87501;-82
2023/01/29 07:04:05;;;;;;;5.53;3.75;;;19.80;51.80;;;;;;4974101;28;87967;-82
2023/01/29 07:06:31;;;;;;;4.50;4.03;;;19.80;51.80;;;;;;4974796;28;87202;-82
2023/01/29 07:08:57;;;;;;;5.20;4.07;;;19.80;51.80;;;;;;4974217;28;87417;-82
2023/01/29 07:11:23;;;;;;;7.35;3.85;;;19.80;51.70;;;;;;4973928;28;88049;-82
2023/01/29 07:13:49;;;;;;;4.55;4.15;;;19.70;51.90;;;;;;4973996;28;88930;-82
2023/01/29 07:16:14;;;;;;;4.03;3.55;;;19.60;51.80;;;;;;4974235;28;88241;-82
2023/01/29 07:18:40;;;;;;;4.07;3.78;;;19.50;52.50;;;;;;4974097;28;87470;-82
2023/01/29 07:21:06;;;;;;;4.28;3.88;;;19.40;52.00;;;;;;4974279;28;88575;-83
2023/01/29 07:23:33;;;;;;;4.35;3.92;;;19.40;52.10;;;;;;4974797;28;88382;-83
2023/01/29 07:26:01;;;;;;;3.95;3.55;;;19.30;52.30;;;;;;4974949;28;87442;-81
2023/01/29 07:28:29;;;;;;;5.03;3.90;;;19.40;52.30;;;;;;4973425;28;87588;-83
2023/01/29 07:30:59;;;;;;;3.83;3.50;;;19.30;52.30;;;;;;4970987;28;92647;-82
2023/01/29 07:33:24;;;;;;;4.45;4.00;;;19.20;52.20;;;;;;4973598;28;88198;-82
2023/01/29 07:35:50;;;;;;;6.28;3.80;;;19.10;52.10;;;;;;4975971;28;87031;-82
2023/01/29 07:38:16;;;;;;;4.10;3.50;;;19.10;52.30;;;;;;4975329;28;87125;-82
2023/01/29 07:40:41;;;;;;;5.20;4.03;;;19.20;52.50;;;;;;4977218;28;89694;-82
2023/01/29 07:43:08;;;;;;;5.00;3.95;;;19.30;52.50;;;;;;4974277;28;88649;-83
2023/01/29 07:45:36;;;;;;;4.03;3.28;;;19.30;52.40;;;;;;4975643;28;86908;-83
2023/01/29 07:48:03;;;;;;;13.85;5.18;;;19.50;52.30;;;;;;4966104;28;87443;-83
2023/01/29 07:50:32;;;;;;;13.77;7.00;;;19.50;52.20;;;;;;4975207;28;87708;-83
2023/01/29 07:52:58;;;;;;;12.57;5.88;;;19.60;51.70;;;;;;4977108;28;88170;-84
2023/01/29 07:55:24;;;;;;;11.15;4.70;;;19.70;51.60;;;;;;4976239;28;87209;-83
2023/01/29 07:58:02;;;;;;;19.20;6.18;;;19.80;51.90;;;;;;4975575;28;87188;-83
2023/01/29 08:00:30;;;;;;;14.70;6.63;;;19.90;52.00;;;;;;4972692;28;94124;-83
2023/01/29 08:03:09;;;;;;;14.98;7.47;;;19.90;51.50;;;;;;4982864;28;88346;-82
2023/01/29 08:05:35;;;;;;;15.10;7.30;;;19.90;50.50;;;;;;4975386;28;88381;-82
2023/01/29 08:08:08;;;;;;;14.07;5.97;;;19.90;50.60;;;;;;4975540;28;87715;-82
2023/01/29 08:10:35;;;;;;;19.42;7.13;;;19.90;50.50;;;;;;4975067;28;88380;-83
2023/01/29 08:13:04;;;;;;;12.57;6.43;;;19.90;50.70;;;;;;4974912;28;87666;-82
2023/01/29 08:15:30;;;;;;;;;;;19.90;50.90;;;;;;4976114;28;87397;-83
2023/01/29 08:17:56;;;;;;;13.38;6.55;;;19.80;51.10;;;;;;4976115;28;86990;-84
2023/01/29 08:20:21;;;;;;;13.30;6.45;;;19.90;51.30;;;;;;4976465;28;87361;-84
2023/01/29 08:22:56;;;;;;;12.60;6.00;;;19.90;51.70;;;;;;4973986;28;89899;-83
2023/01/29 08:25:25;;;;;;;17.85;5.82;;;20.00;51.90;;;;;;4974870;28;87434;-83
2023/01/29 08:27:50;;;;;;;16.98;6.57;;;20.00;52.50;;;;;;4975837;28;87383;-84
2023/01/29 08:30:18;;;;;;;13.02;5.80;;;20.10;52.10;;;;;;4975009;28;89866;-84
2023/01/29 08:32:44;;;;;;;11.43;5.93;;;20.10;52.30;;;;;;4975149;28;89103;-84
2023/01/29 08:35:10;;;;;;;13.13;6.00;;;20.20;52.80;;;;;;4976505;28;87814;-84
2023/01/29 08:37:37;;;;;;;15.85;6.35;;;20.40;52.20;;;;;;4977921;28;87401;-85
2023/01/29 08:40:04;;;;;;;12.20;6.78;;;20.40;52.40;;;;;;4975272;28;88901;-84
2023/01/29 08:42:29;;;;;;;9.00;5.93;;;20.50;52.40;;;;;;4973969;28;91364;-85
2023/01/29 08:44:55;;;;;;;8.23;5.80;;;20.50;52.20;;;;;;4967972;28;87587;-84
2023/01/29 08:47:20;;;;;;;10.43;5.93;;;20.50;52.10;;;;;;4962442;28;90254;-84
2023/01/29 08:49:46;;;;;;;14.60;6.43;;;20.60;51.90;;;;;;4922123;28;91883;-84
2023/01/29 08:52:12;;;;;;;13.25;7.47;;;20.60;51.60;;;;;;4937628;28;90464;-84
2023/01/29 08:54:37;;;;;;;10.40;5.85;;;20.60;50.20;;;;;;4974240;28;88184;-83
2023/01/29 08:57:03;;;;;;;14.85;6.63;;;20.60;49.90;;;;;;4975400;28;87386;-84
2023/01/29 08:59:28;;;;;;;13.98;6.13;;;20.60;50.00;;;;;;4976953;28;89243;-82
2023/01/29 09:01:54;;;;;;;13.60;6.05;;;20.70;50.00;;;;;;4979301;28;87324;-84
2023/01/29 09:04:20;;;;;;;16.25;6.55;;;20.60;50.30;;;;;;4976149;28;87881;-84
2023/01/29 09:06:45;;;;;;;11.52;5.82;;;20.70;50.50;;;;;;4976273;28;87451;-83
2023/01/29 09:09:13;;;;;;;13.68;5.43;;;20.60;50.80;;;;;;4973239;28;88433;-84
2023/01/29 09:11:41;;;;;;;9.95;5.30;;;20.70;51.20;;;;;;4975399;28;88464;-84
2023/01/29 09:14:17;;;;;;;;;;;;;;;;;;;;;
2023/01/29 09:16:42;;;;;;;12.93;5.95;;;20.70;51.70;;;;;;4974416;28;88073;-84
2023/01/29 09:19:08;;;;;;;11.27;4.88;;;20.70;51.80;;;;;;4974705;28;89050;-84
2023/01/29 09:21:34;;;;;;;11.32;5.65;;;20.70;51.80;;;;;;4975173;28;88705;-82
2023/01/29 09:23:59;;;;;;;10.75;5.28;;;20.80;52.10;;;;;;4974617;28;87696;-81
2023/01/29 09:26:25;;;;;;;13.10;5.93;;;20.80;52.10;;;;;;4975165;28;87602;-81
2023/01/29 09:28:50;;;;;;;11.15;5.68;;;20.80;52.20;;;;;;4977279;28;88792;-82
2023/01/29 09:31:16;;;;;;;10.02;4.70;;;20.90;52.90;;;;;;4976274;28;88370;-81
2023/01/29 09:33:42;;;;;;;10.77;4.93;;;20.80;52.30;;;;;;4974286;28;87674;-82
2023/01/29 09:36:07;;;;;;;13.43;5.70;;;20.90;52.40;;;;;;4976479;28;86726;-82
2023/01/29 09:38:33;;;;;;;13.43;6.75;;;20.80;52.40;;;;;;4975204;28;89268;-82
2023/01/29 09:41:21;;;;;;;11.60;4.85;;;20.80;52.40;;;;;;4976286;28;91534;-82
2023/01/29 09:44:01;;;;;;;14.90;5.45;;;20.80;52.70;;;;;;4975327;28;88590;-82
2023/01/29 09:46:42;;;;;;;9.82;5.63;;;20.90;52.50;;;;;;4976104;28;87620;-82
2023/01/29 09:49:32;;;;;;;8.98;4.68;;;20.80;52.30;;;;;;4975995;28;88171;-81
2023/01/29 09:52:06;;;;;;;12.95;5.57;;;20.90;52.10;;;;;;4975646;28;88342;-82
2023/01/29 09:54:53;;;;;;;14.20;5.68;;;20.90;52.30;;;;;;4976729;28;87445;-81
2023/01/29 09:57:24;;;;;;;17.30;5.45;;;20.80;52.20;;;;;;4991012;28;91612;-82
2023/01/29 09:59:50;;;;;;;11.65;5.28;;;20.90;52.50;;;;;;4976497;28;90961;-81
2023/01/29 10:02:48;;;;;;;12.73;5.78;;;20.90;52.60;;;;;;4976641;28;86951;-83
2023/01/29 10:05:19;;;;;;;12.23;6.13;;;20.90;51.30;;;;;;4978353;28;87244;-84
2023/01/29 10:07:56;;;;;;;23.02;8.70;;;21.00;51.80;;;;;;4978370;28;88355;-82
2023/01/29 10:11:00;;;;;;;12.90;6.63;;;21.00;51.70;;;;;;4976896;28;89211;-82
2023/01/29 10:13:43;;;;;;;13.65;6.97;;;20.90;52.10;;;;;;4950657;28;89291;-82
2023/01/29 10:16:31;;;;;;;10.45;6.90;;;21.00;52.30;;;;;;4956623;28;87435;-82
2023/01/29 10:19:22;;;;;;;17.35;6.95;;;21.00;52.70;;;;;;4953676;28;88165;-82
2023/01/29 10:22:00;;;;;;;11.55;6.32;;;21.00;52.70;;;;;;4952053;28;89258;-81
2023/01/29 10:24:40;;;;;;;13.55;6.70;;;20.90;53.00;;;;;;4952617;28;88303;-82
2023/01/29 10:27:37;;;;;;;17.95;6.82;;;20.90;53.30;;;;;;4941653;28;87303;-83
2023/01/29 10:30:08;;;;;;;15.38;6.18;;;20.90;53.80;;;;;;4932692;28;86979;-82
2023/01/29 10:32:35;;;;;;;18.63;6.80;;;21.00;53.60;;;;;;4933140;28;88764;-82
2023/01/29 10:35:28;;;;;;;14.13;6.50;;;21.00;53.80;;;;;;4932623;28;88531;-82
2023/01/29 10:38:01;;;;;;;11.48;6.05;;;21.10;53.90;;;;;;4931818;28;88364;-82
2023/01/29 10:40:38;;;;;;;11.93;6.07;;;21.20;54.10;;;;;;4924232;28;88778;-83
2023/01/29 10:43:28;;;;;;;11.35;5.93;;;21.20;54.20;;;;;;4932273;28;87717;-82
2023/01/29 10:46:09;;;;;;;10.85;5.97;;;21.20;54.20;;;;;;4931162;28;88242;-82
2023/01/29 10:48:45;;;;;;;11.25;5.43;;;21.30;54.00;;;;;;4931070;28;86897;-81
2023/01/29 10:51:16;;;;;;;7.13;5.13;;;21.30;54.60;;;;;;4949824;28;87691;-81
2023/01/29 10:53:56;;;;;;;13.65;7.10;;;21.30;49.50;;;;;;4949018;28;88340;-81
2023/01/29 10:56:51;;;;;;;8.88;5.57;;;21.30;49.60;;;;;;4954018;28;88463;-82
2023/01/29 10:59:53;;;;;;;10.20;5.60;;;21.30;49.80;;;;;;4952797;28;87064;-83
2023/01/29 11:02:22;;;;;;;11.70;6.30;;;21.30;51.10;;;;;;4953892;28;90394;-83
2023/01/29 11:04:48;;;;;;;16.37;6.27;;;21.30;52.00;;;;;;4953737;28;89646;-82
2023/01/29 11:07:17;;;;;;;9.73;5.68;;;21.20;52.50;;;;;;4966987;28;90027;-83
2023/01/29 11:10:01;;;;;;;12.05;6.07;;;21.20;53.00;;;;;;4975840;28;87279;-82
2023/01/29 11:12:29;;;;;;;8.98;5.53;;;21.30;53.30;;;;;;4975893;28;87523;-82
2023/01/29 11:15:01;;;;;;;9.23;5.00;;;21.30;53.50;;;;;;4973623;28;90126;-82
2023/01/29 11:17:27;;;;;;;10.18;5.20;;;21.30;53.70;;;;;;4976614;28;87375;-82
2023/01/29 11:19:58;;;;;;;15.57;5.47;;;21.40;53.80;;;;;;4976553;28;86921;-82
2023/01/29 11:22:29;;;;;;;11.63;5.28;;;21.50;54.30;;;;;;4976501;28;87566;-83
2023/01/29 11:25:19;;;;;;;10.15;5.80;;;21.50;54.20;;;;;;4977008;28;88492;-83
2023/01/29 11:27:56;;;;;;;10.90;4.93;;;21.50;54.30;;;;;;4976020;28;87750;-83
2023/01/29 11:30:37;;;;;;;9.60;4.78;;;21.40;54.50;;;;;;4975750;28;87867;-83
2023/01/29 11:33:20;;;;;;;11.20;5.07;;;21.40;54.70;;;;;;4976134;28;87567;-83
2023/01/29 11:35:48;;;;;;;17.52;5.50;;;21.40;54.70;;;;;;4975282;28;90260;-82
2023/01/29 11:38:23;;;;;;;15.73;6.47;;;21.40;54.40;;;;;;4975093;28;87883;-83
2023/01/29 11:40:49;;;;;;;15.90;6.65;;;21.30;54.20;;;;;;4974621;28;88836;-81
2023/01/29 11:43:17;;;;;;;16.42;6.53;;;21.20;54.10;;;;;;4973382;28;87427;-81
2023/01/29 11:45:44;;;;;;;12.57;6.80;;;21.10;54.20;;;;;;4972832;28;87769;-82
2023/01/29 11:48:15;;;;;;;10.23;5.45;;;21.10;54.80;;;;;;4972183;28;87850;-82
2023/01/29 11:50:41;;;;;;;11.10;5.68;;;21.00;54.90;;;;;;4973542;28;87428;-81
2023/01/29 11:53:22;;;;;;;17.92;6.80;;;21.10;54.50;;;;;;4976073;28;87611;-82
2023/01/29 11:55:48;;;;;;;8.82;5.20;;;21.10;54.80;;;;;;4971224;28;89093;-80
2023/01/29 11:58:30;;;;;;;13.40;5.43;;;21.10;55.10;;;;;;4972497;28;89506;-82
2023/01/29 12:00:59;;;;;;;9.90;5.95;;;21.20;55.30;;;;;;4971502;28;86964;-81
2023/01/29 12:03:35;;;;;;;7.45;4.13;;;21.30;55.30;;;;;;4971065;28;87710;-81
2023/01/29 12:06:13;;;;;;;9.50;4.97;;;21.40;55.40;;;;;;4969121;28;88743;-82
2023/01/29 12:08:39;;;;;;;9.50;4.88;;;21.50;55.40;;;;;;4971693;28;87678;-82
2023/01/29 12:11:32;;;;;;;10.00;4.53;;;21.50;55.30;;;;;;4971047;28;87346;-81
2023/01/29 12:14:20;;;;;;;10.00;4.85;;;21.60;55.40;;;;;;4972287;28;90710;-82
2023/01/29 12:17:11;;;;;;;8.55;4.63;;;21.60;55.30;;;;;;4972860;28;89136;-82
2023/01/29 12:19:46;;;;;;;10.43;4.60;;;21.70;55.20;;;;;;4971760;28;88221;-82
2023/01/29 12:22:31;;;;;;;8.75;4.97;;;21.70;55.30;;;;;;4971901;28;88371;-81
2023/01/29 12:25:06;;;;;;;7.70;4.60;;;21.70;55.50;;;;;;4972598;28;87490;-81
2023/01/29 12:27:52;;;;;;;8.55;4.03;;;21.70;55.50;;;;;;4971365;28;88343;-80
2023/01/29 12:30:23;;;;;;;7.55;4.38;;;21.70;55.60;;;;;;4974212;28;87837;-81
2023/01/29 12:33:11;;;;;;;7.22;4.25;;;21.80;55.40;;;;;;4971987;28;87599;-83
2023/01/29 12:35:56;;;;;;;6.63;3.80;;;21.80;55.50;;;;;;4971005;28;87342;-83
2023/01/29 12:38:23;;;;;;;11.98;4.80;;;21.80;55.70;;;;;;4974019;28;88549;-82
2023/01/29 12:41:06;;;;;;;6.72;4.30;;;21.70;55.50;;;;;;4972217;28;87918;-82
2023/01/29 12:43:40;;;;;;;10.48;4.55;;;21.80;55.40;;;;;;4973256;28;87460;-82
2023/01/29 12:46:17;;;;;;;8.38;4.10;;;21.80;55.50;;;;;;4972075;28;87891;-88
2023/01/29 12:48:45;;;;;;;8.77;4.53;;;21.80;55.00;;;;;;4972289;28;89148;-87
2023/01/29 12:51:19;;;;;;;13.50;4.78;;;21.90;55.30;;;;;;4973045;28;89703;-89
2023/01/29 12:54:08;;;;;;;10.05;4.53;;;21.90;54.10;;;;;;4973977;28;87340;-88
2023/01/29 12:56:35;;;;;;;;;;;21.90;54.80;;;;;;4974012;28;87552;-88
2023/01/29 12:59:08;;;;;;;6.88;3.85;;;22.00;54.60;;;;;;4975400;28;87688;-88
2023/01/29 13:01:46;;;;;;;11.20;3.97;;;22.00;54.60;;;;;;4973866;28;90385;-89
2023/01/29 13:04:21;;;;;;;12.57;4.30;;;22.10;54.70;;;;;;4974072;28;87393;-88
2023/01/29 13:07:04;;;;;;;8.60;4.20;;;22.10;54.80;;;;;;4976236;28;86714;-89
2023/01/29 13:09:32;;;;;;;12.18;3.47;;;22.10;54.80;;;;;;4976677;28;88304;-89
2023/01/29 13:12:24;;;;;;;9.15;3.97;;;22.10;55.00;;;;;;4978760;28;87707;-88
2023/01/29 13:15:00;;;;;;;7.85;3.80;;;22.10;53.90;;;;;;4954941;28;88560;-89
2023/01/29 13:17:46;;;;;;;9.73;3.88;;;22.20;54.20;;;;;;4955092;28;87432;-89
2023/01/29 13:20:16;;;;;;;13.02;4.22;;;22.20;53.40;;;;;;4955173;28;93064;-89
2023/01/29 13:22:43;;;;;;;9.32;4.25;;;22.20;53.80;;;;;;4954179;28;87089;-89
2023/01/29 13:25:15;;;;;;;9.68;4.20;;;22.20;53.70;;;;;;4954334;28;87363;-89
2023/01/29 13:27:42;;;;;;;10.98;4.07;;;22.20;53.80;;;;;;4953967;28;87175;-87
2023/01/29 13:30:24;;;;;;;8.00;4.05;;;22.20;53.80;;;;;;4951913;28;88394;-87
2023/01/29 13:32:53;;;;;;;11.57;4.72;;;22.30;54.10;;;;;;4951024;28;88021;-87
2023/01/29 13:35:21;;;;;;;12.90;4.25;;;22.30;54.10;;;;;;4952409;28;87592;-88
2023/01/29 13:37:52;;;;;;;12.48;4.22;;;22.30;53.90;;;;;;4953345;28;87782;-88
2023/01/29 13:40:25;;;;;;;10.23;4.25;;;22.30;54.00;;;;;;4952409;28;91097;-88